AAR244 KORD-KDFW
Flight info
| Callsign | AAR244 |
|---|---|
| Flight time | 2h 4m |
| Altitude | 40000 |
| Route | DCT ACITO DCT ADELL DCT ARLYN DCT STL DCT FSM DCT RRNET SEEVR4 |
| Aircraft | B744/H-SDE1E2E3FGHIJ3J5M1P1RWXYZ/LB1D1 |
Departure
| Time | 2026-05-05 15:56 |
|---|---|
| Airport | Chicago O'Hare International Airport (KORD) |
Arrival
| Time | 2026-05-05 18:00 |
|---|---|
| Airport | Dallas Fort Worth International Airport (KDFW) |
| Time | Latitude | Longitude | Altitude | Speed | Heading |
|---|---|---|---|---|---|
| 2026-05-05 15:24 | 41.99422 | -87.89044 | 682 ft | 0 kts | 180° |
| 2026-05-05 15:41 | 41.99433 | -87.89044 | 682 ft | 3 kts | 180° |
| 2026-05-05 15:42 | 41.99453 | -87.89044 | 682 ft | 3 kts | 180° |
| 2026-05-05 15:42 | 41.99471 | -87.89044 | 682 ft | 2 kts | 180° |
| 2026-05-05 15:42 | 41.99488 | -87.89043 | 682 ft | 3 kts | 199° |
| 2026-05-05 15:42 | 41.99501 | -87.89035 | 682 ft | 3 kts | 232° |
| 2026-05-05 15:43 | 41.99509 | -87.89016 | 682 ft | 3 kts | 260° |
| 2026-05-05 15:43 | 41.99511 | -87.88990 | 682 ft | 3 kts | 269° |
| 2026-05-05 15:43 | 41.99511 | -87.88973 | 682 ft | 1 kts | 270° |
| 2026-05-05 15:43 | 41.99511 | -87.88969 | 682 ft | 0 kts | 270° |
| 2026-05-05 15:46 | 41.99511 | -87.89012 | 682 ft | 10 kts | 270° |
| 2026-05-05 15:46 | 41.99511 | -87.89106 | 682 ft | 10 kts | 270° |
| 2026-05-05 15:46 | 41.99511 | -87.89194 | 682 ft | 9 kts | 270° |
| 2026-05-05 15:47 | 41.99511 | -87.89279 | 682 ft | 9 kts | 270° |
| 2026-05-05 15:47 | 41.99511 | -87.89332 | 682 ft | 8 kts | 270° |
| 2026-05-05 15:47 | 41.99511 | -87.89433 | 682 ft | 8 kts | 270° |
| 2026-05-05 15:47 | 41.99511 | -87.89521 | 682 ft | 18 kts | 270° |
| 2026-05-05 15:48 | 41.99500 | -87.89700 | 682 ft | 19 kts | 248° |
| 2026-05-05 15:48 | 41.99413 | -87.89825 | 682 ft | 18 kts | 218° |
| 2026-05-05 15:48 | 41.99318 | -87.89928 | 682 ft | 17 kts | 219° |
| 2026-05-05 15:48 | 41.99227 | -87.90022 | 682 ft | 16 kts | 206° |
| 2026-05-05 15:49 | 41.99101 | -87.90043 | 682 ft | 22 kts | 180° |
| 2026-05-05 15:49 | 41.98953 | -87.90041 | 682 ft | 20 kts | 180° |
| 2026-05-05 15:49 | 41.98816 | -87.90042 | 682 ft | 19 kts | 180° |
| 2026-05-05 15:49 | 41.98686 | -87.90044 | 682 ft | 18 kts | 180° |
| 2026-05-05 15:50 | 41.98562 | -87.90046 | 682 ft | 17 kts | 180° |
| 2026-05-05 15:50 | 41.98445 | -87.90046 | 682 ft | 16 kts | 180° |
| 2026-05-05 15:50 | 41.98334 | -87.90042 | 682 ft | 15 kts | 166° |
| 2026-05-05 15:50 | 41.98289 | -87.89891 | 682 ft | 25 kts | 90° |
| 2026-05-05 15:51 | 41.98290 | -87.89671 | 682 ft | 22 kts | 89° |
| 2026-05-05 15:51 | 41.98229 | -87.89498 | 682 ft | 20 kts | 136° |
| 2026-05-05 15:51 | 41.98132 | -87.89368 | 682 ft | 19 kts | 135° |
| 2026-05-05 15:51 | 41.98038 | -87.89261 | 682 ft | 17 kts | 176° |
| 2026-05-05 15:52 | 41.97949 | -87.89352 | 682 ft | 16 kts | 229° |
| 2026-05-05 15:52 | 41.97871 | -87.89430 | 682 ft | 19 kts | 192° |
| 2026-05-05 15:52 | 41.97711 | -87.89433 | 682 ft | 23 kts | 180° |
| 2026-05-05 15:52 | 41.97561 | -87.89432 | 682 ft | 21 kts | 179° |
| 2026-05-05 15:53 | 41.97423 | -87.89432 | 682 ft | 19 kts | 180° |
| 2026-05-05 15:53 | 41.97292 | -87.89432 | 682 ft | 18 kts | 180° |
| 2026-05-05 15:53 | 41.97198 | -87.89390 | 682 ft | 15 kts | 102° |
| 2026-05-05 15:53 | 41.97195 | -87.89215 | 682 ft | 23 kts | 89° |
| 2026-05-05 15:54 | 41.97196 | -87.89010 | 682 ft | 21 kts | 89° |
| 2026-05-05 15:54 | 41.97196 | -87.88823 | 682 ft | 19 kts | 90° |
| 2026-05-05 15:54 | 41.97196 | -87.88645 | 682 ft | 19 kts | 90° |
| 2026-05-05 15:54 | 41.97191 | -87.88476 | 682 ft | 18 kts | 118° |
| 2026-05-05 15:55 | 41.97078 | -87.88443 | 682 ft | 17 kts | 179° |
| 2026-05-05 15:55 | 41.96962 | -87.88441 | 682 ft | 16 kts | 179° |
| 2026-05-05 15:55 | 41.96909 | -87.88505 | 682 ft | 11 kts | 266° |
| 2026-05-05 15:55 | 41.96907 | -87.88638 | 682 ft | 28 kts | 269° |
| 2026-05-05 15:56 | 41.96907 | -87.88933 | 682 ft | 71 kts | 270° |
| 2026-05-05 15:56 | 41.96902 | -87.90397 | 700 ft | 157 kts | 270° |
| 2026-05-05 15:56 | 41.96807 | -87.91828 | 1388 ft | 155 kts | 249° |
| 2026-05-05 15:56 | 41.96013 | -87.92879 | 2079 ft | 178 kts | 213° |
| 2026-05-05 15:57 | 41.94918 | -87.93420 | 3161 ft | 165 kts | 204° |
| 2026-05-05 15:57 | 41.93725 | -87.93996 | 3914 ft | 196 kts | 205° |
| 2026-05-05 15:57 | 41.92493 | -87.94883 | 4909 ft | 208 kts | 218° |
| 2026-05-05 15:57 | 41.91190 | -87.95946 | 5500 ft | 234 kts | 209° |
| 2026-05-05 15:58 | 41.89548 | -87.96742 | 5978 ft | 265 kts | 202° |
| 2026-05-05 15:58 | 41.87749 | -87.97536 | 6921 ft | 276 kts | 201° |
| 2026-05-05 15:58 | 41.85915 | -87.98331 | 8206 ft | 278 kts | 201° |
| 2026-05-05 15:58 | 41.84688 | -87.98864 | 9006 ft | 282 kts | 202° |
| 2026-05-05 15:59 | 41.82800 | -87.99684 | 10224 ft | 286 kts | 203° |
| 2026-05-05 15:59 | 41.80868 | -88.00524 | 11230 ft | 303 kts | 204° |
| 2026-05-05 15:59 | 41.78753 | -88.01447 | 11669 ft | 337 kts | 204° |
| 2026-05-05 15:59 | 41.76422 | -88.02465 | 12182 ft | 364 kts | 204° |
| 2026-05-05 16:00 | 41.73988 | -88.03528 | 13395 ft | 369 kts | 204° |
| 2026-05-05 16:00 | 41.71534 | -88.04598 | 14703 ft | 372 kts | 204° |
| 2026-05-05 16:00 | 41.69070 | -88.05681 | 15982 ft | 375 kts | 204° |
| 2026-05-05 16:00 | 41.66568 | -88.06776 | 17117 ft | 380 kts | 204° |
| 2026-05-05 16:01 | 41.64047 | -88.07874 | 18248 ft | 383 kts | 204° |
| 2026-05-05 16:01 | 41.61483 | -88.08987 | 19186 ft | 392 kts | 204° |
| 2026-05-05 16:01 | 41.58860 | -88.10123 | 20069 ft | 399 kts | 204° |
| 2026-05-05 16:01 | 41.56202 | -88.11273 | 21005 ft | 405 kts | 204° |
| 2026-05-05 16:02 | 41.53502 | -88.12441 | 21900 ft | 411 kts | 205° |
| 2026-05-05 16:02 | 41.50761 | -88.13625 | 22751 ft | 418 kts | 205° |
| 2026-05-05 16:02 | 41.47975 | -88.14828 | 23582 ft | 423 kts | 205° |
| 2026-05-05 16:02 | 41.45156 | -88.16044 | 24413 ft | 429 kts | 205° |
| 2026-05-05 16:03 | 41.42299 | -88.17276 | 25232 ft | 434 kts | 205° |
| 2026-05-05 16:03 | 41.39409 | -88.18524 | 26037 ft | 438 kts | 206° |
| 2026-05-05 16:03 | 41.36512 | -88.19824 | 26791 ft | 442 kts | 206° |
| 2026-05-05 16:03 | 41.33584 | -88.21144 | 27492 ft | 446 kts | 206° |
| 2026-05-05 16:04 | 41.30636 | -88.22466 | 28222 ft | 449 kts | 207° |
| 2026-05-05 16:04 | 41.27660 | -88.23796 | 28779 ft | 454 kts | 207° |
| 2026-05-05 16:04 | 41.24654 | -88.25141 | 29341 ft | 457 kts | 207° |
| 2026-05-05 16:04 | 41.21632 | -88.26506 | 29892 ft | 459 kts | 207° |
| 2026-05-05 16:05 | 41.18631 | -88.27861 | 30792 ft | 452 kts | 207° |
| 2026-05-05 16:05 | 41.15660 | -88.29201 | 31595 ft | 449 kts | 208° |
| 2026-05-05 16:05 | 41.12699 | -88.30535 | 32162 ft | 450 kts | 208° |
| 2026-05-05 16:05 | 41.09738 | -88.31868 | 32680 ft | 451 kts | 208° |
| 2026-05-05 16:06 | 41.06770 | -88.33202 | 33286 ft | 449 kts | 209° |
| 2026-05-05 16:06 | 41.03819 | -88.34528 | 33874 ft | 447 kts | 209° |
| 2026-05-05 16:06 | 41.00872 | -88.35850 | 34381 ft | 447 kts | 210° |
| 2026-05-05 16:06 | 40.97915 | -88.37177 | 34785 ft | 449 kts | 210° |
| 2026-05-05 16:07 | 40.94958 | -88.38503 | 35197 ft | 450 kts | 210° |
| 2026-05-05 16:07 | 40.92028 | -88.39817 | 35638 ft | 450 kts | 210° |
| 2026-05-05 16:07 | 40.89058 | -88.41162 | 35971 ft | 453 kts | 210° |
| 2026-05-05 16:07 | 40.86083 | -88.42503 | 36416 ft | 452 kts | 210° |
| 2026-05-05 16:08 | 40.83098 | -88.43843 | 36790 ft | 453 kts | 210° |
| 2026-05-05 16:08 | 40.80110 | -88.45182 | 37150 ft | 454 kts | 210° |
| 2026-05-05 16:08 | 40.77120 | -88.46519 | 37558 ft | 454 kts | 210° |
| 2026-05-05 16:08 | 40.74117 | -88.47859 | 37774 ft | 458 kts | 210° |
| 2026-05-05 16:09 | 40.71107 | -88.49202 | 38179 ft | 456 kts | 210° |
| 2026-05-05 16:09 | 40.68096 | -88.50543 | 38514 ft | 457 kts | 210° |
| 2026-05-05 16:09 | 40.65087 | -88.51882 | 38853 ft | 457 kts | 210° |
| 2026-05-05 16:09 | 40.62070 | -88.53225 | 39149 ft | 458 kts | 210° |
| 2026-05-05 16:10 | 40.59054 | -88.54577 | 39474 ft | 458 kts | 210° |
| 2026-05-05 16:10 | 40.56040 | -88.55919 | 39770 ft | 458 kts | 210° |
| 2026-05-05 16:10 | 40.53023 | -88.57256 | 39867 ft | 458 kts | 210° |
| 2026-05-05 16:11 | 40.46985 | -88.59923 | 39900 ft | 457 kts | 210° |
| 2026-05-05 16:12 | 40.34933 | -88.65242 | 39897 ft | 455 kts | 212° |
| 2026-05-05 16:12 | 40.29840 | -88.69462 | 39902 ft | 426 kts | 229° |
| 2026-05-05 16:13 | 40.23320 | -88.77285 | 39897 ft | 422 kts | 234° |
| 2026-05-05 16:13 | 40.19144 | -88.82647 | 39897 ft | 420 kts | 234° |
| 2026-05-05 16:14 | 40.10774 | -88.93314 | 39903 ft | 420 kts | 233° |
| 2026-05-05 16:15 | 40.02416 | -89.03995 | 39907 ft | 420 kts | 234° |
| 2026-05-05 16:16 | 39.94092 | -89.14587 | 39908 ft | 418 kts | 234° |
| 2026-05-05 16:17 | 39.87831 | -89.22505 | 39909 ft | 418 kts | 233° |
| 2026-05-05 16:18 | 39.81559 | -89.30413 | 39909 ft | 419 kts | 233° |
| 2026-05-05 16:19 | 39.75271 | -89.38316 | 39915 ft | 419 kts | 233° |
| 2026-05-05 16:19 | 39.68972 | -89.46214 | 39914 ft | 420 kts | 233° |
| 2026-05-05 16:20 | 39.60564 | -89.56722 | 39914 ft | 420 kts | 233° |
| 2026-05-05 16:22 | 39.50027 | -89.69839 | 39913 ft | 421 kts | 233° |
| 2026-05-05 16:23 | 39.41596 | -89.80292 | 39915 ft | 421 kts | 233° |
| 2026-05-05 16:23 | 39.35242 | -89.88145 | 39914 ft | 421 kts | 233° |
| 2026-05-05 16:24 | 39.31011 | -89.93363 | 39914 ft | 421 kts | 233° |
| 2026-05-05 16:25 | 39.24661 | -90.01178 | 39915 ft | 420 kts | 233° |
| 2026-05-05 16:25 | 39.18329 | -90.08951 | 39915 ft | 419 kts | 233° |
| 2026-05-05 16:26 | 39.09874 | -90.19297 | 39911 ft | 419 kts | 233° |
| 2026-05-05 16:27 | 39.05666 | -90.24477 | 39910 ft | 418 kts | 233° |
| 2026-05-05 16:27 | 39.01439 | -90.29626 | 39908 ft | 419 kts | 233° |
| 2026-05-05 16:28 | 38.97199 | -90.34770 | 39904 ft | 419 kts | 233° |
| 2026-05-05 16:28 | 38.92963 | -90.39900 | 39900 ft | 418 kts | 233° |
| 2026-05-05 16:29 | 38.88727 | -90.45025 | 39900 ft | 418 kts | 233° |
| 2026-05-05 16:29 | 38.84480 | -90.50133 | 39899 ft | 419 kts | 232° |
| 2026-05-05 16:30 | 38.80148 | -90.55135 | 39898 ft | 418 kts | 232° |
| 2026-05-05 16:30 | 38.75825 | -90.60112 | 39896 ft | 418 kts | 232° |
| 2026-05-05 16:31 | 38.71498 | -90.65094 | 39893 ft | 418 kts | 232° |
| 2026-05-05 16:31 | 38.67169 | -90.70073 | 39890 ft | 419 kts | 232° |
| 2026-05-05 16:32 | 38.62828 | -90.75060 | 39891 ft | 419 kts | 232° |
| 2026-05-05 16:32 | 38.58533 | -90.80022 | 39892 ft | 418 kts | 233° |
| 2026-05-05 16:33 | 38.54199 | -90.85049 | 39892 ft | 418 kts | 232° |
| 2026-05-05 16:33 | 38.49889 | -90.90017 | 39905 ft | 417 kts | 232° |
| 2026-05-05 16:34 | 38.45575 | -90.94971 | 39915 ft | 417 kts | 232° |
| 2026-05-05 16:34 | 38.41289 | -90.99881 | 39916 ft | 417 kts | 232° |
| 2026-05-05 16:35 | 38.36947 | -91.04844 | 39921 ft | 417 kts | 232° |
| 2026-05-05 16:35 | 38.32658 | -91.09737 | 39920 ft | 416 kts | 233° |
| 2026-05-05 16:36 | 38.28348 | -91.14646 | 39920 ft | 415 kts | 233° |
| 2026-05-05 16:36 | 38.24034 | -91.19551 | 39920 ft | 416 kts | 233° |
| 2026-05-05 16:37 | 38.19716 | -91.24452 | 39920 ft | 416 kts | 233° |
| 2026-05-05 16:37 | 38.15404 | -91.29338 | 39919 ft | 415 kts | 233° |
| 2026-05-05 16:38 | 38.11101 | -91.34206 | 39914 ft | 414 kts | 233° |
| 2026-05-05 16:38 | 38.06797 | -91.39068 | 39910 ft | 414 kts | 233° |
| 2026-05-05 16:39 | 38.02495 | -91.43918 | 39906 ft | 414 kts | 233° |
| 2026-05-05 16:39 | 37.98195 | -91.48759 | 39903 ft | 413 kts | 233° |
| 2026-05-05 16:40 | 37.93894 | -91.53592 | 39899 ft | 413 kts | 233° |
| 2026-05-05 16:40 | 37.89594 | -91.58418 | 39897 ft | 413 kts | 234° |
| 2026-05-05 16:41 | 37.85296 | -91.63232 | 39894 ft | 413 kts | 234° |
| 2026-05-05 16:41 | 37.80996 | -91.68042 | 39890 ft | 413 kts | 234° |
| 2026-05-05 16:42 | 37.76693 | -91.72850 | 39886 ft | 413 kts | 234° |
| 2026-05-05 16:42 | 37.72397 | -91.77638 | 39882 ft | 412 kts | 234° |
| 2026-05-05 16:43 | 37.68093 | -91.82420 | 39852 ft | 412 kts | 234° |
| 2026-05-05 16:43 | 37.64505 | -91.86407 | 39854 ft | 414 kts | 233° |
| 2026-05-05 16:44 | 37.59457 | -91.92013 | 39862 ft | 413 kts | 233° |
| 2026-05-05 16:44 | 37.55140 | -91.96796 | 39860 ft | 413 kts | 233° |
| 2026-05-05 16:45 | 37.51552 | -92.00765 | 39860 ft | 413 kts | 233° |
| 2026-05-05 16:45 | 37.47238 | -92.05531 | 39859 ft | 413 kts | 233° |
| 2026-05-05 16:46 | 37.42923 | -92.10288 | 39856 ft | 411 kts | 233° |
| 2026-05-05 16:46 | 37.38619 | -92.15027 | 39864 ft | 411 kts | 233° |
| 2026-05-05 16:47 | 37.34316 | -92.19756 | 39866 ft | 411 kts | 233° |
| 2026-05-05 16:47 | 37.30009 | -92.24484 | 39866 ft | 411 kts | 233° |
| 2026-05-05 16:48 | 37.25696 | -92.29209 | 39865 ft | 412 kts | 233° |
| 2026-05-05 16:48 | 37.21374 | -92.33937 | 39863 ft | 412 kts | 233° |
| 2026-05-05 16:49 | 37.17057 | -92.38653 | 39861 ft | 412 kts | 233° |
| 2026-05-05 16:49 | 37.12728 | -92.43373 | 39859 ft | 412 kts | 233° |
| 2026-05-05 16:50 | 37.08406 | -92.48079 | 39858 ft | 412 kts | 233° |
| 2026-05-05 16:50 | 37.04080 | -92.52782 | 39857 ft | 411 kts | 233° |
| 2026-05-05 16:51 | 36.99763 | -92.57467 | 39850 ft | 411 kts | 233° |
| 2026-05-05 16:51 | 36.95445 | -92.62147 | 39843 ft | 411 kts | 233° |
| 2026-05-05 16:52 | 36.91148 | -92.66796 | 39839 ft | 411 kts | 233° |
| 2026-05-05 16:52 | 36.86820 | -92.71472 | 39837 ft | 412 kts | 232° |
| 2026-05-05 16:53 | 36.82484 | -92.76149 | 39833 ft | 412 kts | 232° |
| 2026-05-05 16:53 | 36.78153 | -92.80813 | 39829 ft | 411 kts | 232° |
| 2026-05-05 16:54 | 36.73818 | -92.85475 | 39828 ft | 412 kts | 232° |
| 2026-05-05 16:54 | 36.69477 | -92.90136 | 39824 ft | 412 kts | 232° |
| 2026-05-05 16:55 | 36.65135 | -92.94790 | 39812 ft | 412 kts | 232° |
| 2026-05-05 16:55 | 36.60788 | -92.99443 | 39811 ft | 412 kts | 232° |
| 2026-05-05 16:56 | 36.56435 | -93.04095 | 39810 ft | 413 kts | 232° |
| 2026-05-05 16:56 | 36.52079 | -93.08743 | 39809 ft | 413 kts | 232° |
| 2026-05-05 16:57 | 36.47718 | -93.13389 | 39809 ft | 414 kts | 232° |
| 2026-05-05 16:57 | 36.43338 | -93.18048 | 39806 ft | 415 kts | 232° |
| 2026-05-05 16:58 | 36.38979 | -93.22679 | 39801 ft | 415 kts | 232° |
| 2026-05-05 16:58 | 36.34590 | -93.27332 | 39797 ft | 415 kts | 232° |
| 2026-05-05 16:59 | 36.30198 | -93.31983 | 39795 ft | 415 kts | 232° |
| 2026-05-05 16:59 | 36.25801 | -93.36632 | 39794 ft | 415 kts | 232° |
| 2026-05-05 17:00 | 36.21404 | -93.41273 | 39789 ft | 416 kts | 232° |
| 2026-05-05 17:00 | 36.16995 | -93.45921 | 39787 ft | 416 kts | 232° |
| 2026-05-05 17:01 | 36.12586 | -93.50562 | 39779 ft | 416 kts | 232° |
| 2026-05-05 17:01 | 36.08172 | -93.55199 | 39776 ft | 417 kts | 232° |
| 2026-05-05 17:02 | 36.03750 | -93.59839 | 39773 ft | 417 kts | 232° |
| 2026-05-05 17:02 | 35.99325 | -93.64475 | 39776 ft | 417 kts | 232° |
| 2026-05-05 17:03 | 35.94894 | -93.69109 | 39776 ft | 417 kts | 232° |
| 2026-05-05 17:03 | 35.90465 | -93.73735 | 39773 ft | 417 kts | 232° |
| 2026-05-05 17:04 | 35.86032 | -93.78358 | 39772 ft | 417 kts | 232° |
| 2026-05-05 17:04 | 35.81628 | -93.82944 | 39771 ft | 417 kts | 232° |
| 2026-05-05 17:05 | 35.77194 | -93.87554 | 39769 ft | 417 kts | 232° |
| 2026-05-05 17:05 | 35.72727 | -93.92191 | 39768 ft | 417 kts | 232° |
| 2026-05-05 17:06 | 35.68317 | -93.96762 | 39766 ft | 417 kts | 232° |
| 2026-05-05 17:06 | 35.63877 | -94.01360 | 39763 ft | 417 kts | 232° |
| 2026-05-05 17:07 | 35.59449 | -94.05969 | 39760 ft | 417 kts | 232° |
| 2026-05-05 17:07 | 35.55009 | -94.10550 | 39756 ft | 416 kts | 231° |
| 2026-05-05 17:08 | 35.50573 | -94.15111 | 39751 ft | 416 kts | 231° |
| 2026-05-05 17:08 | 35.46133 | -94.19669 | 39746 ft | 416 kts | 231° |
| 2026-05-05 17:09 | 35.41687 | -94.24229 | 39743 ft | 417 kts | 231° |
| 2026-05-05 17:09 | 35.37261 | -94.28807 | 39742 ft | 416 kts | 232° |
| 2026-05-05 17:10 | 35.32946 | -94.33512 | 39740 ft | 415 kts | 233° |
| 2026-05-05 17:10 | 35.28641 | -94.38195 | 39740 ft | 414 kts | 233° |
| 2026-05-05 17:11 | 35.24328 | -94.42866 | 39741 ft | 414 kts | 233° |
| 2026-05-05 17:11 | 35.20013 | -94.47529 | 39744 ft | 414 kts | 233° |
| 2026-05-05 17:12 | 35.15691 | -94.52191 | 39746 ft | 414 kts | 233° |
| 2026-05-05 17:12 | 35.11385 | -94.56855 | 39748 ft | 413 kts | 233° |
| 2026-05-05 17:13 | 35.07094 | -94.61507 | 39749 ft | 412 kts | 233° |
| 2026-05-05 17:13 | 35.02808 | -94.66160 | 39750 ft | 413 kts | 233° |
| 2026-05-05 17:14 | 34.98504 | -94.70788 | 39750 ft | 412 kts | 232° |
| 2026-05-05 17:14 | 34.94222 | -94.75374 | 39751 ft | 412 kts | 232° |
| 2026-05-05 17:15 | 34.89914 | -94.79980 | 39747 ft | 412 kts | 232° |
| 2026-05-05 17:15 | 34.85607 | -94.84581 | 39748 ft | 411 kts | 232° |
| 2026-05-05 17:16 | 34.81307 | -94.89168 | 39747 ft | 411 kts | 232° |
| 2026-05-05 17:16 | 34.76912 | -94.93645 | 39746 ft | 413 kts | 231° |
| 2026-05-05 17:17 | 34.72504 | -94.98121 | 39746 ft | 413 kts | 231° |
| 2026-05-05 17:17 | 34.68120 | -95.02628 | 39741 ft | 413 kts | 231° |
| 2026-05-05 17:18 | 34.63722 | -95.07113 | 39742 ft | 412 kts | 231° |
| 2026-05-05 17:18 | 34.59329 | -95.11574 | 39743 ft | 411 kts | 231° |
| 2026-05-05 17:19 | 34.54937 | -95.16026 | 39744 ft | 411 kts | 231° |
| 2026-05-05 17:19 | 34.50544 | -95.20476 | 39744 ft | 411 kts | 231° |
| 2026-05-05 17:20 | 34.46158 | -95.24920 | 39739 ft | 411 kts | 231° |
| 2026-05-05 17:20 | 34.41782 | -95.29356 | 39738 ft | 409 kts | 231° |
| 2026-05-05 17:21 | 34.37431 | -95.33736 | 39738 ft | 410 kts | 231° |
| 2026-05-05 17:21 | 34.35240 | -95.35935 | 39534 ft | 407 kts | 231° |
| 2026-05-05 17:22 | 34.30985 | -95.40203 | 38845 ft | 391 kts | 231° |
| 2026-05-05 17:22 | 34.28886 | -95.42307 | 37932 ft | 395 kts | 231° |
| 2026-05-05 17:22 | 34.26759 | -95.44438 | 37090 ft | 398 kts | 231° |
| 2026-05-05 17:22 | 34.24634 | -95.46565 | 36342 ft | 397 kts | 231° |
| 2026-05-05 17:23 | 34.22508 | -95.48693 | 35528 ft | 397 kts | 231° |
| 2026-05-05 17:23 | 34.20383 | -95.50824 | 34755 ft | 397 kts | 231° |
| 2026-05-05 17:23 | 34.18240 | -95.52969 | 33916 ft | 406 kts | 231° |
| 2026-05-05 17:23 | 34.16031 | -95.55174 | 33095 ft | 418 kts | 230° |
| 2026-05-05 17:24 | 34.13751 | -95.57446 | 32232 ft | 430 kts | 230° |
| 2026-05-05 17:24 | 34.11425 | -95.59768 | 31513 ft | 438 kts | 230° |
| 2026-05-05 17:24 | 34.09069 | -95.62110 | 31076 ft | 438 kts | 230° |
| 2026-05-05 17:24 | 34.06720 | -95.64457 | 30624 ft | 439 kts | 229° |
| 2026-05-05 17:25 | 34.04372 | -95.66787 | 30352 ft | 437 kts | 229° |
| 2026-05-05 17:25 | 34.02816 | -95.68329 | 30061 ft | 437 kts | 229° |
| 2026-05-05 17:25 | 33.99748 | -95.71369 | 29924 ft | 414 kts | 230° |
| 2026-05-05 17:25 | 33.97577 | -95.73521 | 29826 ft | 395 kts | 230° |
| 2026-05-05 17:26 | 33.95487 | -95.75585 | 29527 ft | 383 kts | 230° |
| 2026-05-05 17:26 | 33.93461 | -95.77630 | 29000 ft | 378 kts | 231° |
| 2026-05-05 17:26 | 33.91452 | -95.79643 | 28473 ft | 373 kts | 230° |
| 2026-05-05 17:26 | 33.89468 | -95.81629 | 27933 ft | 369 kts | 230° |
| 2026-05-05 17:27 | 33.87524 | -95.83570 | 27399 ft | 368 kts | 230° |
| 2026-05-05 17:27 | 33.85476 | -95.85616 | 26827 ft | 400 kts | 229° |
| 2026-05-05 17:27 | 33.83290 | -95.87796 | 26354 ft | 411 kts | 228° |
| 2026-05-05 17:27 | 33.81105 | -95.89960 | 26084 ft | 401 kts | 227° |
| 2026-05-05 17:28 | 33.78987 | -95.92044 | 25908 ft | 385 kts | 227° |
| 2026-05-05 17:28 | 33.76964 | -95.94035 | 25824 ft | 368 kts | 228° |
| 2026-05-05 17:28 | 33.75032 | -95.95936 | 25752 ft | 351 kts | 228° |
| 2026-05-05 17:28 | 33.73179 | -95.97759 | 25647 ft | 337 kts | 228° |
| 2026-05-05 17:29 | 33.71390 | -95.99519 | 25343 ft | 329 kts | 229° |
| 2026-05-05 17:29 | 33.69625 | -96.01257 | 24858 ft | 327 kts | 229° |
| 2026-05-05 17:29 | 33.67875 | -96.03004 | 24319 ft | 327 kts | 228° |
| 2026-05-05 17:29 | 33.66124 | -96.04742 | 23800 ft | 327 kts | 228° |
| 2026-05-05 17:30 | 33.64380 | -96.06462 | 23418 ft | 322 kts | 227° |
| 2026-05-05 17:30 | 33.62659 | -96.08155 | 23012 ft | 318 kts | 227° |
| 2026-05-05 17:30 | 33.60951 | -96.09831 | 22558 ft | 316 kts | 228° |
| 2026-05-05 17:30 | 33.59257 | -96.11491 | 22130 ft | 313 kts | 228° |
| 2026-05-05 17:31 | 33.57585 | -96.13128 | 21694 ft | 310 kts | 228° |
| 2026-05-05 17:31 | 33.55910 | -96.14768 | 21271 ft | 307 kts | 228° |
| 2026-05-05 17:31 | 33.54263 | -96.16379 | 20829 ft | 305 kts | 228° |
| 2026-05-05 17:31 | 33.52614 | -96.17994 | 20309 ft | 307 kts | 228° |
| 2026-05-05 17:32 | 33.50956 | -96.19610 | 19799 ft | 306 kts | 228° |
| 2026-05-05 17:32 | 33.49324 | -96.21204 | 19440 ft | 301 kts | 229° |
| 2026-05-05 17:32 | 33.47703 | -96.22797 | 18867 ft | 303 kts | 229° |
| 2026-05-05 17:32 | 33.46102 | -96.24363 | 18502 ft | 299 kts | 229° |
| 2026-05-05 17:33 | 33.44563 | -96.25950 | 18167 ft | 290 kts | 233° |
| 2026-05-05 17:33 | 33.43167 | -96.27687 | 17654 ft | 287 kts | 236° |
| 2026-05-05 17:33 | 33.41859 | -96.29498 | 17079 ft | 288 kts | 237° |
| 2026-05-05 17:33 | 33.40577 | -96.31331 | 16669 ft | 285 kts | 237° |
| 2026-05-05 17:34 | 33.39307 | -96.33125 | 16309 ft | 282 kts | 237° |
| 2026-05-05 17:34 | 33.38016 | -96.34915 | 15742 ft | 286 kts | 236° |
| 2026-05-05 17:34 | 33.36720 | -96.36698 | 15375 ft | 282 kts | 235° |
| 2026-05-05 17:34 | 33.35437 | -96.38467 | 14848 ft | 283 kts | 234° |
| 2026-05-05 17:35 | 33.34143 | -96.40243 | 14480 ft | 280 kts | 234° |
| 2026-05-05 17:35 | 33.32987 | -96.42058 | 14180 ft | 270 kts | 243° |
| 2026-05-05 17:35 | 33.32157 | -96.44061 | 13663 ft | 270 kts | 249° |
| 2026-05-05 17:35 | 33.31696 | -96.45456 | 13247 ft | 273 kts | 252° |
| 2026-05-05 17:36 | 33.30903 | -96.48360 | 12627 ft | 273 kts | 254° |
| 2026-05-05 17:36 | 33.30529 | -96.49787 | 12411 ft | 271 kts | 253° |
| 2026-05-05 17:36 | 33.29952 | -96.51906 | 12141 ft | 264 kts | 252° |
| 2026-05-05 17:36 | 33.29378 | -96.53960 | 11926 ft | 257 kts | 252° |
| 2026-05-05 17:37 | 33.28857 | -96.55999 | 11445 ft | 258 kts | 257° |
| 2026-05-05 17:37 | 33.28568 | -96.58134 | 10958 ft | 261 kts | 263° |
| 2026-05-05 17:37 | 33.28430 | -96.60281 | 10603 ft | 258 kts | 266° |
| 2026-05-05 17:37 | 33.28366 | -96.62423 | 10179 ft | 258 kts | 267° |
| 2026-05-05 17:38 | 33.28308 | -96.64571 | 9752 ft | 259 kts | 267° |
| 2026-05-05 17:38 | 33.28232 | -96.66727 | 9292 ft | 261 kts | 266° |
| 2026-05-05 17:38 | 33.28143 | -96.68890 | 8924 ft | 259 kts | 266° |
| 2026-05-05 17:38 | 33.28047 | -96.71035 | 8583 ft | 258 kts | 266° |
| 2026-05-05 17:39 | 33.27948 | -96.73179 | 8181 ft | 259 kts | 266° |
| 2026-05-05 17:39 | 33.27847 | -96.75316 | 7851 ft | 257 kts | 266° |
| 2026-05-05 17:39 | 33.27745 | -96.77422 | 7618 ft | 250 kts | 266° |
| 2026-05-05 17:39 | 33.27673 | -96.79432 | 7429 ft | 243 kts | 268° |
| 2026-05-05 17:40 | 33.27643 | -96.81468 | 6932 ft | 248 kts | 268° |
| 2026-05-05 17:40 | 33.27623 | -96.83509 | 6704 ft | 243 kts | 269° |
| 2026-05-05 17:40 | 33.27602 | -96.85499 | 6471 ft | 237 kts | 268° |
| 2026-05-05 17:40 | 33.27581 | -96.87457 | 6154 ft | 236 kts | 268° |
| 2026-05-05 17:41 | 33.27560 | -96.89402 | 5895 ft | 231 kts | 268° |
| 2026-05-05 17:41 | 33.27539 | -96.91311 | 5779 ft | 231 kts | 268° |
| 2026-05-05 17:41 | 33.27518 | -96.93235 | 5754 ft | 233 kts | 268° |
| 2026-05-05 17:41 | 33.27496 | -96.95227 | 5761 ft | 244 kts | 268° |
| 2026-05-05 17:42 | 33.27442 | -96.97266 | 5759 ft | 246 kts | 264° |
| 2026-05-05 17:42 | 33.27110 | -96.99259 | 5750 ft | 243 kts | 252° |
| 2026-05-05 17:42 | 33.26328 | -97.01051 | 5756 ft | 246 kts | 237° |
| 2026-05-05 17:42 | 33.25147 | -97.02545 | 5742 ft | 249 kts | 223° |
| 2026-05-05 17:43 | 33.23673 | -97.03650 | 5749 ft | 253 kts | 211° |
| 2026-05-05 17:43 | 33.22013 | -97.04384 | 5753 ft | 256 kts | 200° |
| 2026-05-05 17:43 | 33.20253 | -97.04788 | 5755 ft | 260 kts | 193° |
| 2026-05-05 17:43 | 33.18455 | -97.05059 | 5742 ft | 261 kts | 191° |
| 2026-05-05 17:44 | 33.16657 | -97.05245 | 5435 ft | 264 kts | 188° |
| 2026-05-05 17:44 | 33.14795 | -97.05332 | 5088 ft | 264 kts | 186° |
| 2026-05-05 17:44 | 33.12958 | -97.05351 | 4734 ft | 264 kts | 185° |
| 2026-05-05 17:44 | 33.11124 | -97.05359 | 4382 ft | 263 kts | 185° |
| 2026-05-05 17:45 | 33.09291 | -97.05366 | 4027 ft | 263 kts | 184° |
| 2026-05-05 17:45 | 33.07487 | -97.05375 | 3685 ft | 262 kts | 184° |
| 2026-05-05 17:45 | 33.05669 | -97.05383 | 3336 ft | 260 kts | 184° |
| 2026-05-05 17:45 | 33.03868 | -97.05393 | 2990 ft | 258 kts | 183° |
| 2026-05-05 17:46 | 33.02077 | -97.05402 | 2642 ft | 257 kts | 183° |
| 2026-05-05 17:46 | 33.00299 | -97.05411 | 2314 ft | 256 kts | 183° |
| 2026-05-05 17:46 | 32.98521 | -97.05419 | 1972 ft | 254 kts | 183° |
| 2026-05-05 17:46 | 32.96759 | -97.05430 | 1628 ft | 253 kts | 182° |
| 2026-05-05 17:47 | 32.93728 | -97.05447 | 1042 ft | 252 kts | 182° |
| 2026-05-05 17:47 | 32.93089 | -97.05446 | 939 ft | 250 kts | 181° |
| 2026-05-05 17:47 | 32.91463 | -97.04987 | 1361 ft | 236 kts | 155° |
| 2026-05-05 17:48 | 32.90357 | -97.03609 | 2456 ft | 244 kts | 126° |
| 2026-05-05 17:48 | 32.89854 | -97.01564 | 3381 ft | 276 kts | 101° |
| 2026-05-05 17:48 | 32.90083 | -96.99273 | 3500 ft | 282 kts | 74° |
| 2026-05-05 17:48 | 32.91121 | -96.97318 | 3634 ft | 281 kts | 47° |
| 2026-05-05 17:49 | 32.92724 | -96.96010 | 3774 ft | 280 kts | 27° |
| 2026-05-05 17:49 | 32.94557 | -96.95225 | 3881 ft | 282 kts | 15° |
| 2026-05-05 17:49 | 32.96433 | -96.94560 | 3973 ft | 281 kts | 13° |
| 2026-05-05 17:49 | 32.98317 | -96.93931 | 4003 ft | 281 kts | 13° |
| 2026-05-05 17:50 | 33.00200 | -96.93304 | 4019 ft | 282 kts | 13° |
| 2026-05-05 17:50 | 33.02079 | -96.92677 | 4019 ft | 278 kts | 13° |
| 2026-05-05 17:50 | 33.03937 | -96.92047 | 4024 ft | 281 kts | 13° |
| 2026-05-05 17:50 | 33.05821 | -96.91407 | 4018 ft | 277 kts | 12° |
| 2026-05-05 17:51 | 33.07686 | -96.90776 | 4028 ft | 278 kts | 13° |
| 2026-05-05 17:51 | 33.09500 | -96.90331 | 4008 ft | 255 kts | 358° |
| 2026-05-05 17:51 | 33.11172 | -96.90774 | 4001 ft | 238 kts | 329° |
| 2026-05-05 17:51 | 33.12297 | -96.91990 | 3940 ft | 208 kts | 301° |
| 2026-05-05 17:52 | 33.12866 | -96.93531 | 3846 ft | 199 kts | 283° |
| 2026-05-05 17:52 | 33.13158 | -96.95123 | 3759 ft | 198 kts | 278° |
| 2026-05-05 17:52 | 33.13414 | -96.96748 | 3612 ft | 193 kts | 276° |
| 2026-05-05 17:52 | 33.13629 | -96.98264 | 3472 ft | 181 kts | 274° |
| 2026-05-05 17:53 | 33.13833 | -96.99718 | 3349 ft | 178 kts | 274° |
| 2026-05-05 17:53 | 33.14035 | -97.01179 | 3208 ft | 179 kts | 274° |
| 2026-05-05 17:53 | 33.14238 | -97.02643 | 3082 ft | 173 kts | 274° |
| 2026-05-05 17:53 | 33.14330 | -97.03985 | 2996 ft | 156 kts | 254° |
| 2026-05-05 17:54 | 33.13667 | -97.04847 | 2976 ft | 146 kts | 206° |
| 2026-05-05 17:54 | 33.12682 | -97.04898 | 3012 ft | 137 kts | 188° |
| 2026-05-05 17:54 | 33.11755 | -97.04950 | 2996 ft | 131 kts | 190° |
| 2026-05-05 17:54 | 33.10856 | -97.05059 | 3007 ft | 132 kts | 191° |
| 2026-05-05 17:55 | 33.09938 | -97.05176 | 3003 ft | 133 kts | 191° |
| 2026-05-05 17:55 | 33.09021 | -97.05267 | 2997 ft | 132 kts | 189° |
| 2026-05-05 17:55 | 33.08105 | -97.05322 | 3003 ft | 132 kts | 188° |
| 2026-05-05 17:55 | 33.07203 | -97.05352 | 2994 ft | 130 kts | 187° |
| 2026-05-05 17:56 | 33.06280 | -97.05368 | 3009 ft | 132 kts | 186° |
| 2026-05-05 17:56 | 33.05361 | -97.05379 | 3004 ft | 134 kts | 186° |
| 2026-05-05 17:56 | 33.04436 | -97.05387 | 3012 ft | 135 kts | 186° |
| 2026-05-05 17:56 | 33.03489 | -97.05393 | 2940 ft | 136 kts | 185° |
| 2026-05-05 17:57 | 33.02547 | -97.05399 | 2751 ft | 133 kts | 186° |
| 2026-05-05 17:57 | 33.01630 | -97.05404 | 2559 ft | 131 kts | 185° |
| 2026-05-05 17:57 | 33.00713 | -97.05409 | 2392 ft | 132 kts | 185° |
| 2026-05-05 17:57 | 32.99790 | -97.05414 | 2211 ft | 131 kts | 185° |
| 2026-05-05 17:58 | 32.98878 | -97.05419 | 2041 ft | 132 kts | 185° |
| 2026-05-05 17:58 | 32.97961 | -97.05424 | 1879 ft | 131 kts | 185° |
| 2026-05-05 17:58 | 32.97050 | -97.05429 | 1693 ft | 130 kts | 185° |
| 2026-05-05 17:58 | 32.96151 | -97.05433 | 1507 ft | 130 kts | 184° |
| 2026-05-05 17:59 | 32.95234 | -97.05437 | 1354 ft | 132 kts | 185° |
| 2026-05-05 17:59 | 32.94337 | -97.05443 | 1165 ft | 126 kts | 185° |
| 2026-05-05 17:59 | 32.93463 | -97.05448 | 998 ft | 130 kts | 184° |
| 2026-05-05 17:59 | 32.92541 | -97.05442 | 803 ft | 134 kts | 184° |
| 2026-05-05 18:00 | 32.91585 | -97.05451 | 667 ft | 140 kts | 187° |
| 2026-05-05 18:00 | 32.90618 | -97.05452 | 632 ft | 132 kts | 186° |
| 2026-05-05 18:00 | 32.89792 | -97.05465 | 621 ft | 95 kts | 181° |
| 2026-05-05 18:00 | 32.89411 | -97.05482 | 621 ft | 9 kts | 221° |
| 2026-05-05 18:01 | 32.89404 | -97.05559 | 621 ft | 10 kts | 274° |
| 2026-05-05 18:01 | 32.89404 | -97.05640 | 621 ft | 10 kts | 269° |
| 2026-05-05 18:01 | 32.89404 | -97.05717 | 621 ft | 9 kts | 269° |
| 2026-05-05 18:01 | 32.89427 | -97.05778 | 621 ft | 9 kts | 337° |
| 2026-05-05 18:02 | 32.89483 | -97.05788 | 621 ft | 8 kts | 1° |
| 2026-05-05 18:02 | 32.89538 | -97.05787 | 621 ft | 8 kts | 1° |
| 2026-05-05 18:02 | 32.89589 | -97.05785 | 621 ft | 7 kts | 1° |
| 2026-05-05 18:02 | 32.89635 | -97.05790 | 621 ft | 7 kts | 334° |
| 2026-05-05 18:03 | 32.89655 | -97.05836 | 621 ft | 6 kts | 282° |
| 2026-05-05 18:03 | 32.89657 | -97.05884 | 621 ft | 6 kts | 271° |
| 2026-05-05 18:03 | 32.89658 | -97.05930 | 621 ft | 5 kts | 271° |
| 2026-05-05 18:03 | 32.89659 | -97.05973 | 621 ft | 5 kts | 269° |
| 2026-05-05 18:04 | 32.89658 | -97.06012 | 621 ft | 5 kts | 269° |
| 2026-05-05 18:04 | 32.89667 | -97.06045 | 621 ft | 4 kts | 322° |
| 2026-05-05 18:04 | 32.89696 | -97.06050 | 621 ft | 4 kts | 0° |
| 2026-05-05 18:04 | 32.89720 | -97.06050 | 621 ft | 2 kts | 0° |